sensor_id;sensor_type;location;lat;lon;timestamp;P1;durP1;ratioP1;P2;durP2;ratioP2
60060;SDS011;45933;51.336;12.612;2023-06-14T00:01:30;4.90;;;1.73;;
60060;SDS011;45933;51.336;12.612;2023-06-14T00:03:56;2.90;;;1.60;;
60060;SDS011;45933;51.336;12.612;2023-06-14T00:06:22;1.80;;;1.42;;
60060;SDS011;45933;51.336;12.612;2023-06-14T00:08:49;2.30;;;1.55;;
60060;SDS011;45933;51.336;12.612;2023-06-14T00:11:14;5.47;;;1.80;;
60060;SDS011;45933;51.336;12.612;2023-06-14T00:13:39;2.10;;;1.60;;
60060;SDS011;45933;51.336;12.612;2023-06-14T00:16:06;10.27;;;2.25;;
60060;SDS011;45933;51.336;12.612;2023-06-14T00:18:31;3.08;;;1.73;;
60060;SDS011;45933;51.336;12.612;2023-06-14T00:20:56;3.50;;;1.70;;
60060;SDS011;45933;51.336;12.612;2023-06-14T00:23:22;3.93;;;1.80;;
60060;SDS011;45933;51.336;12.612;2023-06-14T00:25:47;2.55;;;1.75;;
60060;SDS011;45933;51.336;12.612;2023-06-14T00:28:12;4.30;;;1.75;;
60060;SDS011;45933;51.336;12.612;2023-06-14T00:30:38;2.33;;;1.48;;
60060;SDS011;45933;51.336;12.612;2023-06-14T00:33:03;2.92;;;1.80;;
60060;SDS011;45933;51.336;12.612;2023-06-14T00:35:29;2.45;;;1.58;;
60060;SDS011;45933;51.336;12.612;2023-06-14T00:37:54;3.15;;;2.10;;
60060;SDS011;45933;51.336;12.612;2023-06-14T00:40:20;4.88;;;1.88;;
60060;SDS011;45933;51.336;12.612;2023-06-14T00:42:46;3.95;;;2.22;;
60060;SDS011;45933;51.336;12.612;2023-06-14T00:45:11;3.65;;;1.90;;
60060;SDS011;45933;51.336;12.612;2023-06-14T00:47:37;2.50;;;1.90;;
60060;SDS011;45933;51.336;12.612;2023-06-14T00:50:06;2.15;;;1.90;;
60060;SDS011;45933;51.336;12.612;2023-06-14T00:52:32;7.93;;;2.03;;
60060;SDS011;45933;51.336;12.612;2023-06-14T00:54:58;3.78;;;1.90;;
60060;SDS011;45933;51.336;12.612;2023-06-14T00:57:23;4.82;;;1.95;;
60060;SDS011;45933;51.336;12.612;2023-06-14T00:59:49;4.13;;;1.98;;
60060;SDS011;45933;51.336;12.612;2023-06-14T01:02:15;2.10;;;1.90;;
60060;SDS011;45933;51.336;12.612;2023-06-14T01:04:40;3.45;;;2.00;;
60060;SDS011;45933;51.336;12.612;2023-06-14T01:09:53;3.17;;;1.90;;
60060;SDS011;45933;51.336;12.612;2023-06-14T01:15:37;5.90;;;2.33;;
60060;SDS011;45933;51.336;12.612;2023-06-14T01:18:04;3.00;;;2.30;;
60060;SDS011;45933;51.336;12.612;2023-06-14T01:20:31;2.77;;;2.17;;
60060;SDS011;45933;51.336;12.612;2023-06-14T01:22:58;3.73;;;2.30;;
60060;SDS011;45933;51.336;12.612;2023-06-14T01:25:24;3.30;;;2.10;;
60060;SDS011;45933;51.336;12.612;2023-06-14T01:27:51;3.93;;;2.40;;
60060;SDS011;45933;51.336;12.612;2023-06-14T01:30:18;3.63;;;2.43;;
60060;SDS011;45933;51.336;12.612;2023-06-14T01:32:46;2.77;;;2.00;;
60060;SDS011;45933;51.336;12.612;2023-06-14T01:35:12;4.10;;;2.40;;
60060;SDS011;45933;51.336;12.612;2023-06-14T01:37:37;3.50;;;2.07;;
60060;SDS011;45933;51.336;12.612;2023-06-14T01:40:04;4.10;;;2.37;;
60060;SDS011;45933;51.336;12.612;2023-06-14T01:42:32;2.97;;;2.27;;
60060;SDS011;45933;51.336;12.612;2023-06-14T01:45:00;4.23;;;2.40;;
60060;SDS011;45933;51.336;12.612;2023-06-14T01:47:26;4.07;;;2.37;;
60060;SDS011;45933;51.336;12.612;2023-06-14T01:49:52;5.13;;;2.37;;
60060;SDS011;45933;51.336;12.612;2023-06-14T01:52:17;3.83;;;2.60;;
60060;SDS011;45933;51.336;12.612;2023-06-14T01:54:44;4.27;;;2.80;;
60060;SDS011;45933;51.336;12.612;2023-06-14T01:57:11;3.20;;;2.57;;
60060;SDS011;45933;51.336;12.612;2023-06-14T01:59:36;7.00;;;2.90;;
60060;SDS011;45933;51.336;12.612;2023-06-14T02:02:02;5.03;;;2.93;;
60060;SDS011;45933;51.336;12.612;2023-06-14T02:04:28;3.67;;;2.83;;
60060;SDS011;45933;51.336;12.612;2023-06-14T02:06:53;3.73;;;2.83;;
60060;SDS011;45933;51.336;12.612;2023-06-14T02:09:19;3.43;;;2.90;;
60060;SDS011;45933;51.336;12.612;2023-06-14T02:11:44;3.57;;;2.50;;
60060;SDS011;45933;51.336;12.612;2023-06-14T02:14:10;7.70;;;2.83;;
60060;SDS011;45933;51.336;12.612;2023-06-14T02:16:36;3.17;;;2.20;;
60060;SDS011;45933;51.336;12.612;2023-06-14T02:19:03;4.93;;;2.60;;
60060;SDS011;45933;51.336;12.612;2023-06-14T02:21:29;4.93;;;2.53;;
60060;SDS011;45933;51.336;12.612;2023-06-14T02:23:54;4.80;;;3.17;;
60060;SDS011;45933;51.336;12.612;2023-06-14T02:26:20;3.17;;;2.80;;
60060;SDS011;45933;51.336;12.612;2023-06-14T02:28:45;3.17;;;2.53;;
60060;SDS011;45933;51.336;12.612;2023-06-14T02:31:10;3.17;;;2.40;;
60060;SDS011;45933;51.336;12.612;2023-06-14T02:33:35;4.80;;;2.87;;
60060;SDS011;45933;51.336;12.612;2023-06-14T02:36:01;7.50;;;2.70;;
60060;SDS011;45933;51.336;12.612;2023-06-14T02:38:28;2.40;;;2.20;;
60060;SDS011;45933;51.336;12.612;2023-06-14T02:40:53;7.43;;;2.57;;
60060;SDS011;45933;51.336;12.612;2023-06-14T02:43:18;4.63;;;2.67;;
60060;SDS011;45933;51.336;12.612;2023-06-14T02:45:44;2.90;;;2.30;;
60060;SDS011;45933;51.336;12.612;2023-06-14T02:48:10;5.30;;;2.80;;
60060;SDS011;45933;51.336;12.612;2023-06-14T02:50:36;5.00;;;2.80;;
60060;SDS011;45933;51.336;12.612;2023-06-14T02:56:10;3.13;;;2.33;;
60060;SDS011;45933;51.336;12.612;2023-06-14T02:58:36;4.50;;;2.57;;
60060;SDS011;45933;51.336;12.612;2023-06-14T03:01:02;4.07;;;2.50;;
60060;SDS011;45933;51.336;12.612;2023-06-14T03:03:28;2.97;;;2.63;;
60060;SDS011;45933;51.336;12.612;2023-06-14T03:05:53;2.80;;;1.97;;
60060;SDS011;45933;51.336;12.612;2023-06-14T03:08:19;4.10;;;2.40;;
60060;SDS011;45933;51.336;12.612;2023-06-14T03:10:48;6.07;;;2.43;;
60060;SDS011;45933;51.336;12.612;2023-06-14T03:13:14;3.13;;;2.37;;
60060;SDS011;45933;51.336;12.612;2023-06-14T03:15:41;11.93;;;3.33;;
60060;SDS011;45933;51.336;12.612;2023-06-14T03:18:07;5.63;;;2.70;;
60060;SDS011;45933;51.336;12.612;2023-06-14T03:20:34;4.03;;;2.57;;
60060;SDS011;45933;51.336;12.612;2023-06-14T03:23:00;3.33;;;2.33;;
60060;SDS011;45933;51.336;12.612;2023-06-14T03:25:26;4.30;;;2.43;;
60060;SDS011;45933;51.336;12.612;2023-06-14T03:27:54;3.13;;;2.40;;
60060;SDS011;45933;51.336;12.612;2023-06-14T03:30:19;2.63;;;2.27;;
60060;SDS011;45933;51.336;12.612;2023-06-14T03:32:45;2.47;;;2.27;;
60060;SDS011;45933;51.336;12.612;2023-06-14T03:35:10;4.33;;;2.30;;
60060;SDS011;45933;51.336;12.612;2023-06-14T03:37:41;3.47;;;2.50;;
60060;SDS011;45933;51.336;12.612;2023-06-14T03:40:07;5.23;;;2.30;;
60060;SDS011;45933;51.336;12.612;2023-06-14T03:42:32;4.53;;;2.27;;
60060;SDS011;45933;51.336;12.612;2023-06-14T03:44:57;3.37;;;2.57;;
60060;SDS011;45933;51.336;12.612;2023-06-14T03:47:23;3.93;;;2.60;;
60060;SDS011;45933;51.336;12.612;2023-06-14T03:49:48;6.07;;;2.47;;
60060;SDS011;45933;51.336;12.612;2023-06-14T03:52:13;4.73;;;2.83;;
60060;SDS011;45933;51.336;12.612;2023-06-14T03:54:39;3.43;;;2.40;;
60060;SDS011;45933;51.336;12.612;2023-06-14T03:57:04;5.13;;;2.30;;
60060;SDS011;45933;51.336;12.612;2023-06-14T03:59:31;3.30;;;2.40;;
60060;SDS011;45933;51.336;12.612;2023-06-14T04:01:56;3.90;;;2.60;;
60060;SDS011;45933;51.336;12.612;2023-06-14T04:04:21;3.10;;;2.33;;
60060;SDS011;45933;51.336;12.612;2023-06-14T04:06:46;5.30;;;2.60;;
60060;SDS011;45933;51.336;12.612;2023-06-14T04:09:13;4.97;;;2.60;;
60060;SDS011;45933;51.336;12.612;2023-06-14T04:11:38;2.40;;;2.07;;
60060;SDS011;45933;51.336;12.612;2023-06-14T04:14:03;3.10;;;2.37;;
60060;SDS011;45933;51.336;12.612;2023-06-14T04:16:28;3.30;;;2.40;;
60060;SDS011;45933;51.336;12.612;2023-06-14T04:18:54;3.10;;;2.70;;
60060;SDS011;45933;51.336;12.612;2023-06-14T04:21:20;2.47;;;2.27;;
60060;SDS011;45933;51.336;12.612;2023-06-14T04:23:46;3.70;;;2.40;;
60060;SDS011;45933;51.336;12.612;2023-06-14T04:26:11;5.00;;;3.03;;
60060;SDS011;45933;51.336;12.612;2023-06-14T04:28:36;3.73;;;2.70;;
60060;SDS011;45933;51.336;12.612;2023-06-14T04:31:05;3.47;;;2.40;;
60060;SDS011;45933;51.336;12.612;2023-06-14T04:33:33;3.20;;;2.90;;
60060;SDS011;45933;51.336;12.612;2023-06-14T04:36:08;2.97;;;2.50;;
60060;SDS011;45933;51.336;12.612;2023-06-14T04:38:35;5.83;;;2.73;;
60060;SDS011;45933;51.336;12.612;2023-06-14T04:41:00;4.27;;;3.33;;
60060;SDS011;45933;51.336;12.612;2023-06-14T04:43:27;2.80;;;2.33;;
60060;SDS011;45933;51.336;12.612;2023-06-14T04:45:52;2.90;;;2.50;;
60060;SDS011;45933;51.336;12.612;2023-06-14T04:48:19;4.87;;;3.03;;
60060;SDS011;45933;51.336;12.612;2023-06-14T04:50:45;4.32;;;2.90;;
60060;SDS011;45933;51.336;12.612;2023-06-14T04:53:11;3.67;;;2.50;;
60060;SDS011;45933;51.336;12.612;2023-06-14T04:55:36;4.20;;;3.10;;
60060;SDS011;45933;51.336;12.612;2023-06-14T04:58:02;4.82;;;3.05;;
60060;SDS011;45933;51.336;12.612;2023-06-14T05:00:28;4.65;;;3.30;;
60060;SDS011;45933;51.336;12.612;2023-06-14T05:02:53;4.63;;;3.20;;
60060;SDS011;45933;51.336;12.612;2023-06-14T05:05:18;4.28;;;3.40;;
60060;SDS011;45933;51.336;12.612;2023-06-14T05:07:44;5.77;;;3.50;;
60060;SDS011;45933;51.336;12.612;2023-06-14T05:10:10;5.23;;;3.17;;
60060;SDS011;45933;51.336;12.612;2023-06-14T05:12:35;5.60;;;3.08;;
60060;SDS011;45933;51.336;12.612;2023-06-14T05:15:01;4.85;;;3.13;;
60060;SDS011;45933;51.336;12.612;2023-06-14T05:17:27;4.15;;;3.75;;
60060;SDS011;45933;51.336;12.612;2023-06-14T05:19:53;4.72;;;3.30;;
60060;SDS011;45933;51.336;12.612;2023-06-14T05:22:18;7.25;;;3.65;;
60060;SDS011;45933;51.336;12.612;2023-06-14T05:24:43;4.13;;;3.72;;
60060;SDS011;45933;51.336;12.612;2023-06-14T05:27:09;4.40;;;3.72;;
60060;SDS011;45933;51.336;12.612;2023-06-14T05:29:34;5.50;;;3.85;;
60060;SDS011;45933;51.336;12.612;2023-06-14T05:31:59;5.38;;;3.83;;
60060;SDS011;45933;51.336;12.612;2023-06-14T05:34:25;6.07;;;4.20;;
60060;SDS011;45933;51.336;12.612;2023-06-14T05:36:50;5.70;;;4.25;;
60060;SDS011;45933;51.336;12.612;2023-06-14T05:39:16;4.00;;;3.55;;
60060;SDS011;45933;51.336;12.612;2023-06-14T05:41:42;5.53;;;4.03;;
60060;SDS011;45933;51.336;12.612;2023-06-14T05:44:07;6.72;;;3.70;;
60060;SDS011;45933;51.336;12.612;2023-06-14T05:46:33;4.40;;;4.00;;
60060;SDS011;45933;51.336;12.612;2023-06-14T05:48:59;3.95;;;3.55;;
60060;SDS011;45933;51.336;12.612;2023-06-14T05:51:24;6.93;;;3.63;;
60060;SDS011;45933;51.336;12.612;2023-06-14T05:53:52;5.47;;;3.92;;
60060;SDS011;45933;51.336;12.612;2023-06-14T05:56:18;7.32;;;4.20;;
60060;SDS011;45933;51.336;12.612;2023-06-14T05:58:43;4.85;;;3.83;;
60060;SDS011;45933;51.336;12.612;2023-06-14T06:01:09;5.25;;;3.97;;
60060;SDS011;45933;51.336;12.612;2023-06-14T06:03:35;5.03;;;3.88;;
60060;SDS011;45933;51.336;12.612;2023-06-14T06:06:00;5.25;;;4.43;;
60060;SDS011;45933;51.336;12.612;2023-06-14T06:08:26;4.53;;;4.03;;
60060;SDS011;45933;51.336;12.612;2023-06-14T06:10:51;4.78;;;4.28;;
60060;SDS011;45933;51.336;12.612;2023-06-14T06:13:17;6.80;;;4.55;;
60060;SDS011;45933;51.336;12.612;2023-06-14T06:15:42;4.38;;;3.78;;
60060;SDS011;45933;51.336;12.612;2023-06-14T06:18:07;9.88;;;4.05;;
60060;SDS011;45933;51.336;12.612;2023-06-14T06:20:33;9.70;;;3.95;;
60060;SDS011;45933;51.336;12.612;2023-06-14T06:22:58;4.80;;;4.13;;
60060;SDS011;45933;51.336;12.612;2023-06-14T06:25:24;5.18;;;3.78;;
60060;SDS011;45933;51.336;12.612;2023-06-14T06:27:51;6.75;;;4.20;;
60060;SDS011;45933;51.336;12.612;2023-06-14T06:30:18;3.92;;;3.50;;
60060;SDS011;45933;51.336;12.612;2023-06-14T06:32:43;5.40;;;4.00;;
60060;SDS011;45933;51.336;12.612;2023-06-14T06:35:09;4.68;;;3.78;;
60060;SDS011;45933;51.336;12.612;2023-06-14T06:37:36;4.55;;;3.83;;
60060;SDS011;45933;51.336;12.612;2023-06-14T06:40:01;4.80;;;4.30;;
60060;SDS011;45933;51.336;12.612;2023-06-14T06:42:28;4.85;;;4.35;;
60060;SDS011;45933;51.336;12.612;2023-06-14T06:44:54;7.00;;;4.30;;
60060;SDS011;45933;51.336;12.612;2023-06-14T06:47:19;5.63;;;3.90;;
60060;SDS011;45933;51.336;12.612;2023-06-14T06:49:45;5.57;;;3.65;;
60060;SDS011;45933;51.336;12.612;2023-06-14T06:52:10;4.32;;;3.92;;
60060;SDS011;45933;51.336;12.612;2023-06-14T06:54:35;4.50;;;3.78;;
60060;SDS011;45933;51.336;12.612;2023-06-14T06:57:01;3.95;;;3.60;;
60060;SDS011;45933;51.336;12.612;2023-06-14T06:59:26;4.18;;;3.72;;
60060;SDS011;45933;51.336;12.612;2023-06-14T07:01:52;5.40;;;3.50;;
60060;SDS011;45933;51.336;12.612;2023-06-14T07:04:17;5.47;;;3.63;;
60060;SDS011;45933;51.336;12.612;2023-06-14T07:06:43;5.93;;;3.92;;
60060;SDS011;45933;51.336;12.612;2023-06-14T07:09:09;3.97;;;3.53;;
60060;SDS011;45933;51.336;12.612;2023-06-14T07:11:40;5.68;;;3.40;;
60060;SDS011;45933;51.336;12.612;2023-06-14T07:14:06;3.83;;;3.45;;
60060;SDS011;45933;51.336;12.612;2023-06-14T07:16:32;4.07;;;3.55;;
60060;SDS011;45933;51.336;12.612;2023-06-14T07:18:57;8.45;;;3.83;;
60060;SDS011;45933;51.336;12.612;2023-06-14T07:21:23;5.13;;;4.03;;
60060;SDS011;45933;51.336;12.612;2023-06-14T07:23:48;4.35;;;3.55;;
60060;SDS011;45933;51.336;12.612;2023-06-14T07:26:13;6.25;;;4.03;;
60060;SDS011;45933;51.336;12.612;2023-06-14T07:28:39;4.63;;;3.70;;
60060;SDS011;45933;51.336;12.612;2023-06-14T07:31:04;3.85;;;3.45;;
60060;SDS011;45933;51.336;12.612;2023-06-14T07:33:29;3.85;;;3.45;;
60060;SDS011;45933;51.336;12.612;2023-06-14T07:35:55;4.72;;;3.60;;
60060;SDS011;45933;51.336;12.612;2023-06-14T07:38:20;3.72;;;3.40;;
60060;SDS011;45933;51.336;12.612;2023-06-14T07:40:45;5.93;;;3.50;;
60060;SDS011;45933;51.336;12.612;2023-06-14T07:43:10;3.15;;;2.88;;
60060;SDS011;45933;51.336;12.612;2023-06-14T07:45:36;5.18;;;3.10;;
60060;SDS011;45933;51.336;12.612;2023-06-14T07:48:02;5.35;;;3.20;;
60060;SDS011;45933;51.336;12.612;2023-06-14T07:50:27;6.18;;;2.90;;
60060;SDS011;45933;51.336;12.612;2023-06-14T07:52:53;4.10;;;3.08;;
60060;SDS011;45933;51.336;12.612;2023-06-14T07:55:18;7.47;;;3.30;;
60060;SDS011;45933;51.336;12.612;2023-06-14T07:57:44;3.80;;;3.35;;
60060;SDS011;45933;51.336;12.612;2023-06-14T08:00:09;3.40;;;3.10;;
60060;SDS011;45933;51.336;12.612;2023-06-14T08:02:39;4.85;;;3.40;;
60060;SDS011;45933;51.336;12.612;2023-06-14T08:05:04;6.53;;;3.20;;
60060;SDS011;45933;51.336;12.612;2023-06-14T08:07:30;7.47;;;3.22;;
60060;SDS011;45933;51.336;12.612;2023-06-14T08:09:55;6.00;;;3.55;;
60060;SDS011;45933;51.336;12.612;2023-06-14T08:12:20;4.15;;;2.97;;
60060;SDS011;45933;51.336;12.612;2023-06-14T08:14:46;4.38;;;3.97;;
60060;SDS011;45933;51.336;12.612;2023-06-14T08:17:11;4.20;;;3.05;;
60060;SDS011;45933;51.336;12.612;2023-06-14T08:19:36;5.63;;;3.30;;
60060;SDS011;45933;51.336;12.612;2023-06-14T08:22:02;4.28;;;3.42;;
60060;SDS011;45933;51.336;12.612;2023-06-14T08:24:28;3.58;;;3.28;;
60060;SDS011;45933;51.336;12.612;2023-06-14T08:26:54;4.95;;;3.90;;
60060;SDS011;45933;51.336;12.612;2023-06-14T08:29:19;5.43;;;3.00;;
60060;SDS011;45933;51.336;12.612;2023-06-14T08:31:44;3.97;;;3.22;;
60060;SDS011;45933;51.336;12.612;2023-06-14T08:34:10;6.90;;;3.55;;
60060;SDS011;45933;51.336;12.612;2023-06-14T08:36:35;3.90;;;3.50;;
60060;SDS011;45933;51.336;12.612;2023-06-14T08:39:01;4.30;;;2.90;;
60060;SDS011;45933;51.336;12.612;2023-06-14T08:41:26;4.53;;;3.00;;
60060;SDS011;45933;51.336;12.612;2023-06-14T08:43:54;3.20;;;2.90;;
60060;SDS011;45933;51.336;12.612;2023-06-14T08:46:20;4.22;;;2.70;;
60060;SDS011;45933;51.336;12.612;2023-06-14T08:48:48;3.95;;;3.13;;
60060;SDS011;45933;51.336;12.612;2023-06-14T08:51:15;3.90;;;2.80;;
60060;SDS011;45933;51.336;12.612;2023-06-14T08:53:49;3.22;;;2.83;;
60060;SDS011;45933;51.336;12.612;2023-06-14T08:56:18;4.65;;;2.60;;
60060;SDS011;45933;51.336;12.612;2023-06-14T08:58:45;3.95;;;2.58;;
60060;SDS011;45933;51.336;12.612;2023-06-14T09:01:13;4.07;;;2.67;;
60060;SDS011;45933;51.336;12.612;2023-06-14T09:03:40;2.83;;;2.50;;
60060;SDS011;45933;51.336;12.612;2023-06-14T09:06:06;3.47;;;2.80;;
60060;SDS011;45933;51.336;12.612;2023-06-14T09:08:33;3.20;;;2.78;;
60060;SDS011;45933;51.336;12.612;2023-06-14T09:11:00;4.43;;;3.17;;
60060;SDS011;45933;51.336;12.612;2023-06-14T09:13:26;4.45;;;2.90;;
60060;SDS011;45933;51.336;12.612;2023-06-14T09:15:52;2.65;;;2.45;;
60060;SDS011;45933;51.336;12.612;2023-06-14T09:18:18;2.75;;;2.42;;
60060;SDS011;45933;51.336;12.612;2023-06-14T09:20:45;3.22;;;2.85;;
60060;SDS011;45933;51.336;12.612;2023-06-14T09:23:12;3.45;;;2.40;;
60060;SDS011;45933;51.336;12.612;2023-06-14T09:25:45;3.22;;;2.92;;
60060;SDS011;45933;51.336;12.612;2023-06-14T09:28:11;3.17;;;2.88;;
60060;SDS011;45933;51.336;12.612;2023-06-14T09:30:37;2.58;;;2.38;;
60060;SDS011;45933;51.336;12.612;2023-06-14T09:33:03;2.60;;;2.40;;
60060;SDS011;45933;51.336;12.612;2023-06-14T09:35:28;3.03;;;2.60;;
60060;SDS011;45933;51.336;12.612;2023-06-14T09:37:56;2.50;;;2.30;;
60060;SDS011;45933;51.336;12.612;2023-06-14T09:40:21;6.85;;;2.75;;
60060;SDS011;45933;51.336;12.612;2023-06-14T09:42:47;3.30;;;2.20;;
60060;SDS011;45933;51.336;12.612;2023-06-14T09:45:12;3.67;;;2.50;;
60060;SDS011;45933;51.336;12.612;2023-06-14T09:47:38;2.42;;;2.22;;
60060;SDS011;45933;51.336;12.612;2023-06-14T09:50:04;2.55;;;2.15;;
60060;SDS011;45933;51.336;12.612;2023-06-14T09:52:30;2.60;;;2.40;;
60060;SDS011;45933;51.336;12.612;2023-06-14T09:54:56;3.13;;;2.25;;
60060;SDS011;45933;51.336;12.612;2023-06-14T09:57:24;4.57;;;2.20;;
60060;SDS011;45933;51.336;12.612;2023-06-14T09:59:52;2.88;;;2.08;;
60060;SDS011;45933;51.336;12.612;2023-06-14T10:02:25;2.50;;;2.30;;
60060;SDS011;45933;51.336;12.612;2023-06-14T10:05:04;4.88;;;2.47;;
60060;SDS011;45933;51.336;12.612;2023-06-14T10:07:38;3.15;;;2.45;;
60060;SDS011;45933;51.336;12.612;2023-06-14T10:10:07;2.83;;;2.28;;
60060;SDS011;45933;51.336;12.612;2023-06-14T10:12:33;2.60;;;2.40;;
60060;SDS011;45933;51.336;12.612;2023-06-14T10:14:58;2.60;;;2.30;;
60060;SDS011;45933;51.336;12.612;2023-06-14T10:20:10;2.45;;;2.17;;
60060;SDS011;45933;51.336;12.612;2023-06-14T10:23:17;3.65;;;2.38;;
60060;SDS011;45933;51.336;12.612;2023-06-14T10:25:49;2.50;;;2.30;;
60060;SDS011;45933;51.336;12.612;2023-06-14T10:28:19;2.10;;;1.90;;
60060;SDS011;45933;51.336;12.612;2023-06-14T10:38:56;2.30;;;2.10;;
60060;SDS011;45933;51.336;12.612;2023-06-14T10:41:29;4.88;;;2.22;;
60060;SDS011;45933;51.336;12.612;2023-06-14T10:46:59;6.60;;;2.50;;
60060;SDS011;45933;51.336;12.612;2023-06-14T10:52:13;2.67;;;2.47;;
60060;SDS011;45933;51.336;12.612;2023-06-14T10:57:29;2.50;;;2.30;;
60060;SDS011;45933;51.336;12.612;2023-06-14T10:59:57;2.55;;;2.30;;
60060;SDS011;45933;51.336;12.612;2023-06-14T11:05:26;3.13;;;2.20;;
60060;SDS011;45933;51.336;12.612;2023-06-14T11:07:58;2.85;;;2.33;;
60060;SDS011;45933;51.336;12.612;2023-06-14T11:10:41;3.00;;;2.22;;
60060;SDS011;45933;51.336;12.612;2023-06-14T11:13:08;3.20;;;2.38;;
60060;SDS011;45933;51.336;12.612;2023-06-14T11:15:37;2.30;;;2.10;;
60060;SDS011;45933;51.336;12.612;2023-06-14T11:18:07;2.40;;;2.20;;
60060;SDS011;45933;51.336;12.612;2023-06-14T11:20:35;2.60;;;2.40;;
60060;SDS011;45933;51.336;12.612;2023-06-14T11:23:01;2.20;;;2.00;;
60060;SDS011;45933;51.336;12.612;2023-06-14T11:25:27;5.07;;;2.47;;
60060;SDS011;45933;51.336;12.612;2023-06-14T11:27:56;2.80;;;2.60;;
60060;SDS011;45933;51.336;12.612;2023-06-14T11:30:22;5.28;;;2.20;;
60060;SDS011;45933;51.336;12.612;2023-06-14T11:32:48;2.50;;;2.30;;
60060;SDS011;45933;51.336;12.612;2023-06-14T11:35:15;2.50;;;2.30;;
60060;SDS011;45933;51.336;12.612;2023-06-14T11:37:42;2.58;;;2.38;;
60060;SDS011;45933;51.336;12.612;2023-06-14T11:40:09;3.22;;;2.58;;
60060;SDS011;45933;51.336;12.612;2023-06-14T11:42:37;3.25;;;2.40;;
60060;SDS011;45933;51.336;12.612;2023-06-14T11:45:03;2.95;;;2.40;;
60060;SDS011;45933;51.336;12.612;2023-06-14T11:47:33;3.95;;;2.55;;
60060;SDS011;45933;51.336;12.612;2023-06-14T11:50:00;3.08;;;2.60;;
60060;SDS011;45933;51.336;12.612;2023-06-14T11:52:26;2.95;;;2.00;;
60060;SDS011;45933;51.336;12.612;2023-06-14T11:54:51;2.90;;;2.40;;
60060;SDS011;45933;51.336;12.612;2023-06-14T11:57:18;3.38;;;2.40;;
60060;SDS011;45933;51.336;12.612;2023-06-14T11:59:44;2.67;;;2.47;;
60060;SDS011;45933;51.336;12.612;2023-06-14T12:02:13;4.57;;;2.85;;
60060;SDS011;45933;51.336;12.612;2023-06-14T12:04:43;3.15;;;2.45;;
60060;SDS011;45933;51.336;12.612;2023-06-14T12:07:15;10.77;;;2.80;;
60060;SDS011;45933;51.336;12.612;2023-06-14T12:12:20;2.90;;;2.60;;
60060;SDS011;45933;51.336;12.612;2023-06-14T12:14:46;3.03;;;2.75;;
60060;SDS011;45933;51.336;12.612;2023-06-14T12:17:12;2.28;;;2.17;;
60060;SDS011;45933;51.336;12.612;2023-06-14T12:19:41;3.20;;;2.90;;
60060;SDS011;45933;51.336;12.612;2023-06-14T12:22:09;3.45;;;2.60;;
60060;SDS011;45933;51.336;12.612;2023-06-14T12:24:35;2.80;;;2.55;;
60060;SDS011;45933;51.336;12.612;2023-06-14T12:27:00;2.60;;;2.40;;
60060;SDS011;45933;51.336;12.612;2023-06-14T12:29:28;2.60;;;2.35;;
60060;SDS011;45933;51.336;12.612;2023-06-14T12:31:53;2.75;;;2.35;;
60060;SDS011;45933;51.336;12.612;2023-06-14T12:34:21;3.25;;;2.95;;
60060;SDS011;45933;51.336;12.612;2023-06-14T12:36:46;4.18;;;2.42;;
60060;SDS011;45933;51.336;12.612;2023-06-14T12:39:12;2.90;;;2.70;;
60060;SDS011;45933;51.336;12.612;2023-06-14T12:41:37;2.28;;;2.08;;
60060;SDS011;45933;51.336;12.612;2023-06-14T12:44:03;3.08;;;2.33;;
60060;SDS011;45933;51.336;12.612;2023-06-14T12:46:31;2.15;;;1.95;;
60060;SDS011;45933;51.336;12.612;2023-06-14T12:48:57;2.70;;;2.42;;
60060;SDS011;45933;51.336;12.612;2023-06-14T12:51:22;3.53;;;2.47;;
60060;SDS011;45933;51.336;12.612;2023-06-14T12:53:48;3.38;;;2.53;;
60060;SDS011;45933;51.336;12.612;2023-06-14T12:56:14;6.82;;;2.80;;
60060;SDS011;45933;51.336;12.612;2023-06-14T12:58:40;3.70;;;2.63;;
60060;SDS011;45933;51.336;12.612;2023-06-14T13:01:06;3.13;;;2.80;;
60060;SDS011;45933;51.336;12.612;2023-06-14T13:03:31;2.88;;;2.60;;
60060;SDS011;45933;51.336;12.612;2023-06-14T13:05:58;3.00;;;2.40;;
60060;SDS011;45933;51.336;12.612;2023-06-14T13:08:23;2.65;;;2.30;;
60060;SDS011;45933;51.336;12.612;2023-06-14T13:10:49;4.50;;;2.53;;
60060;SDS011;45933;51.336;12.612;2023-06-14T13:13:14;4.45;;;2.70;;
60060;SDS011;45933;51.336;12.612;2023-06-14T13:15:40;3.83;;;2.38;;
60060;SDS011;45933;51.336;12.612;2023-06-14T13:18:05;4.25;;;2.75;;
60060;SDS011;45933;51.336;12.612;2023-06-14T13:20:30;5.10;;;2.42;;
60060;SDS011;45933;51.336;12.612;2023-06-14T13:22:56;2.75;;;2.55;;
60060;SDS011;45933;51.336;12.612;2023-06-14T13:25:21;3.63;;;2.67;;
60060;SDS011;45933;51.336;12.612;2023-06-14T13:27:47;3.30;;;2.30;;
60060;SDS011;45933;51.336;12.612;2023-06-14T13:30:13;3.45;;;2.47;;
60060;SDS011;45933;51.336;12.612;2023-06-14T13:32:38;4.05;;;2.75;;
60060;SDS011;45933;51.336;12.612;2023-06-14T13:35:04;3.00;;;2.67;;
60060;SDS011;45933;51.336;12.612;2023-06-14T13:37:29;4.35;;;2.80;;
60060;SDS011;45933;51.336;12.612;2023-06-14T13:39:55;2.92;;;2.55;;
60060;SDS011;45933;51.336;12.612;2023-06-14T13:42:20;3.25;;;2.63;;
60060;SDS011;45933;51.336;12.612;2023-06-14T13:44:45;4.63;;;2.92;;
60060;SDS011;45933;51.336;12.612;2023-06-14T13:47:11;3.25;;;2.50;;
60060;SDS011;45933;51.336;12.612;2023-06-14T13:49:37;4.28;;;2.90;;
60060;SDS011;45933;51.336;12.612;2023-06-14T13:52:02;2.78;;;2.40;;
60060;SDS011;45933;51.336;12.612;2023-06-14T13:54:28;4.88;;;2.65;;
60060;SDS011;45933;51.336;12.612;2023-06-14T13:56:53;3.90;;;2.88;;
60060;SDS011;45933;51.336;12.612;2023-06-14T13:59:19;2.60;;;2.40;;
60060;SDS011;45933;51.336;12.612;2023-06-14T14:01:44;3.83;;;2.50;;
60060;SDS011;45933;51.336;12.612;2023-06-14T14:04:10;2.83;;;2.42;;
60060;SDS011;45933;51.336;12.612;2023-06-14T14:06:36;3.22;;;2.58;;
60060;SDS011;45933;51.336;12.612;2023-06-14T14:09:01;5.68;;;2.65;;
60060;SDS011;45933;51.336;12.612;2023-06-14T14:11:27;5.07;;;2.75;;
60060;SDS011;45933;51.336;12.612;2023-06-14T14:13:53;4.40;;;3.00;;
60060;SDS011;45933;51.336;12.612;2023-06-14T14:16:18;4.57;;;3.00;;
60060;SDS011;45933;51.336;12.612;2023-06-14T14:18:45;2.75;;;2.55;;
60060;SDS011;45933;51.336;12.612;2023-06-14T14:21:11;4.22;;;2.80;;
60060;SDS011;45933;51.336;12.612;2023-06-14T14:23:36;3.00;;;2.70;;
60060;SDS011;45933;51.336;12.612;2023-06-14T14:26:01;4.15;;;2.42;;
60060;SDS011;45933;51.336;12.612;2023-06-14T14:28:29;3.72;;;2.97;;
60060;SDS011;45933;51.336;12.612;2023-06-14T14:30:55;4.30;;;2.60;;
60060;SDS011;45933;51.336;12.612;2023-06-14T14:33:20;3.67;;;2.30;;
60060;SDS011;45933;51.336;12.612;2023-06-14T14:35:45;3.35;;;2.20;;
60060;SDS011;45933;51.336;12.612;2023-06-14T14:38:11;2.60;;;2.40;;
60060;SDS011;45933;51.336;12.612;2023-06-14T14:40:37;3.70;;;2.38;;
60060;SDS011;45933;51.336;12.612;2023-06-14T14:43:02;3.90;;;2.35;;
60060;SDS011;45933;51.336;12.612;2023-06-14T14:45:28;4.68;;;2.50;;
60060;SDS011;45933;51.336;12.612;2023-06-14T14:47:53;3.17;;;2.40;;
60060;SDS011;45933;51.336;12.612;2023-06-14T14:50:18;3.30;;;2.17;;
60060;SDS011;45933;51.336;12.612;2023-06-14T14:52:43;4.00;;;2.35;;
60060;SDS011;45933;51.336;12.612;2023-06-14T14:55:09;2.80;;;2.10;;
60060;SDS011;45933;51.336;12.612;2023-06-14T14:57:35;5.22;;;2.30;;
60060;SDS011;45933;51.336;12.612;2023-06-14T15:00:01;2.85;;;2.38;;
60060;SDS011;45933;51.336;12.612;2023-06-14T15:02:28;3.17;;;2.30;;